Time;durP1;ratioP1;P1;durP2;ratioP2;P2;SDS_P1;SDS_P2;PMS_P1;PMS_P2;Temp;Humidity;BMP_temperature;BMP_pressure;BME280_temperature;BME280_humidity;BME280_pressure;Samples;Min_cycle;Max_cycle;Signal;HPM_P1;HPM_P2
2023/10/14 00:01:29;;;;;;;0.00;0.00;;;13.40;99.90;;;;;;4990868;28;20050;-66
2023/10/14 00:03:56;;;;;;;0.32;0.00;;;13.40;99.90;;;;;;5011852;28;20037;-66
2023/10/14 00:06:22;;;;;;;0.05;0.00;;;13.40;99.90;;;;;;4984091;28;20482;-66
2023/10/14 00:08:57;;;;;;;2.00;0.13;;;13.40;99.90;;;;;;4996164;28;20124;-66
2023/10/14 00:11:24;;;;;;;0.10;0.00;;;13.40;99.90;;;;;;5014508;28;20116;-66
2023/10/14 00:13:52;;;;;;;0.98;0.03;;;13.30;99.90;;;;;;4995851;28;20397;-66
2023/10/14 00:18:59;;;;;;;2.75;0.43;;;13.20;99.90;;;;;;5008882;28;20038;-66
2023/10/14 00:21:26;;;;;;;0.68;0.15;;;13.20;99.90;;;;;;4992320;28;20050;-67
2023/10/14 00:24:01;;;;;;;0.08;0.00;;;13.20;99.90;;;;;;5014487;28;20034;-67
2023/10/14 00:26:27;;;;;;;0.00;0.00;;;13.10;99.90;;;;;;5012033;28;20503;-66
2023/10/14 00:31:38;;;;;;;0.20;0.05;;;13.00;99.90;;;;;;5010986;28;20048;-66
2023/10/14 00:34:04;;;;;;;2.35;0.10;;;13.00;99.90;;;;;;5014976;28;20029;-66
2023/10/14 00:36:34;;;;;;;0.80;0.30;;;12.90;99.90;;;;;;5018489;28;20053;-66
2023/10/14 00:39:12;;;;;;;1.17;0.10;;;12.90;99.90;;;;;;4992272;28;20034;-67
2023/10/14 00:41:44;;;;;;;6.28;0.38;;;12.80;99.90;;;;;;5019784;28;20037;-67
2023/10/14 00:44:13;;;;;;;0.10;0.03;;;12.80;99.90;;;;;;5002243;28;20046;-66
2023/10/14 00:46:48;;;;;;;0.10;0.10;;;12.70;99.90;;;;;;5003279;28;20045;-67
2023/10/14 00:49:22;;;;;;;0.03;0.03;;;12.70;99.90;;;;;;4997749;28;20049;-66
2023/10/14 00:51:51;;;;;;;1.00;0.37;;;12.60;99.90;;;;;;5017454;28;20053;-67
2023/10/14 00:57:09;;;;;;;0.85;0.30;;;12.60;99.90;;;;;;5015208;28;20146;-66
2023/10/14 00:59:35;;;;;;;0.17;0.10;;;12.60;99.90;;;;;;4998777;28;20155;-67
2023/10/14 01:02:02;;;;;;;3.47;0.10;;;12.60;99.90;;;;;;5016540;28;20044;-67
2023/10/14 01:04:34;;;;;;;0.55;0.20;;;12.50;99.90;;;;;;5019440;28;20081;-67
2023/10/14 01:07:12;;;;;;;0.65;0.28;;;12.50;99.90;;;;;;5013599;28;20045;-66
2023/10/14 01:15:04;;;;;;;0.65;0.20;;;12.30;99.90;;;;;;5001768;28;20116;-67
2023/10/14 01:17:30;;;;;;;0.00;0.00;;;12.30;99.90;;;;;;5012480;28;20041;-67
2023/10/14 01:20:10;;;;;;;1.85;0.30;;;12.30;99.90;;;;;;5015474;28;20047;-67
2023/10/14 01:22:38;;;;;;;2.42;0.28;;;12.30;99.90;;;;;;5013270;28;20038;-67
2023/10/14 01:25:06;;;;;;;0.00;0.00;;;12.20;99.90;;;;;;5012127;28;20509;-67
2023/10/14 01:27:35;;;;;;;0.13;0.10;;;12.20;99.90;;;;;;5011343;28;20092;-67
2023/10/14 01:30:08;;;;;;;0.77;0.38;;;12.10;99.90;;;;;;5018846;28;20037;-67
2023/10/14 01:37:54;;;;;;;0.00;0.00;;;12.00;99.90;;;;;;5012514;28;20056;-67
2023/10/14 01:40:27;;;;;;;2.97;0.20;;;11.90;99.90;;;;;;5016435;28;20048;-67
2023/10/14 01:42:57;;;;;;;1.05;0.10;;;11.90;99.90;;;;;;5004435;28;20083;-67
2023/10/14 01:45:27;;;;;;;2.20;0.20;;;11.80;99.90;;;;;;5015193;28;20038;-67
2023/10/14 01:50:38;;;;;;;3.23;0.20;;;11.70;99.90;;;;;;5016804;28;20478;-67
2023/10/14 01:53:11;;;;;;;0.32;0.17;;;11.60;99.90;;;;;;5012851;28;20061;-67
2023/10/14 01:55:43;;;;;;;1.85;0.20;;;11.50;99.90;;;;;;4999974;28;20046;-67
2023/10/14 01:58:22;;;;;;;3.10;0.68;;;11.50;99.90;;;;;;5011279;28;20071;-67
2023/10/14 02:00:53;;;;;;;0.80;0.10;;;11.40;99.90;;;;;;5016163;28;20050;-67
2023/10/14 02:03:22;;;;;;;3.03;0.35;;;11.30;99.90;;;;;;5012082;28;20112;-68
2023/10/14 02:05:52;;;;;;;5.07;0.30;;;11.30;99.90;;;;;;5012525;28;20905;-67
2023/10/14 02:08:21;;;;;;;3.83;0.30;;;11.20;99.90;;;;;;5013954;28;20454;-67
2023/10/14 02:10:53;;;;;;;6.05;0.28;;;11.20;99.90;;;;;;5023908;28;20537;-67
2023/10/14 02:13:22;;;;;;;0.00;0.00;;;11.20;99.90;;;;;;5011334;28;20034;-67
2023/10/14 02:15:59;;;;;;;0.60;0.17;;;11.10;99.90;;;;;;5016442;28;20060;-67
2023/10/14 02:18:25;;;;;;;1.77;0.20;;;11.10;99.90;;;;;;5013278;28;20375;-67
2023/10/14 02:21:04;;;;;;;1.45;0.25;;;11.00;99.90;;;;;;5017301;28;20520;-67
2023/10/14 02:23:43;;;;;;;3.00;0.17;;;11.00;99.90;;;;;;4992945;28;20037;-67
2023/10/14 02:26:31;;;;;;;5.65;0.32;;;10.80;99.90;;;;;;5016277;28;20040;-67
2023/10/14 02:28:57;;;;;;;0.85;0.30;;;10.80;99.90;;;;;;5001535;28;20436;-67
2023/10/14 02:33:54;;;;;;;1.83;0.30;;;10.60;99.90;;;;;;5011409;28;20077;-67
2023/10/14 02:36:28;;;;;;;0.85;0.17;;;10.60;99.90;;;;;;5012951;28;20056;-67
2023/10/14 02:38:55;;;;;;;0.77;0.08;;;10.50;99.90;;;;;;5014340;28;20085;-67
2023/10/14 02:41:26;;;;;;;2.90;0.80;;;10.40;99.90;;;;;;5013142;28;20109;-67
2023/10/14 02:44:28;;;;;;;1.98;0.00;;;10.40;99.90;;;;;;5011188;28;20056;-67
2023/10/14 02:47:03;;;;;;;0.80;0.30;;;10.30;99.90;;;;;;4931482;29;20499;-67
2023/10/14 02:49:35;;;;;;;0.00;0.00;;;10.20;99.90;;;;;;5005314;28;20505;-67
2023/10/14 02:52:08;;;;;;;4.57;0.20;;;10.10;99.90;;;;;;5009827;28;20181;-67
2023/10/14 02:54:34;;;;;;;2.55;0.43;;;10.10;99.90;;;;;;5015417;28;20056;-67
2023/10/14 02:57:24;;;;;;;3.85;0.30;;;10.10;99.90;;;;;;5014955;28;20042;-67
2023/10/14 02:59:57;;;;;;;1.08;0.22;;;10.00;99.90;;;;;;5019399;28;20049;-67
2023/10/14 03:02:25;;;;;;;3.65;0.52;;;10.00;99.90;;;;;;4994372;28;20041;-67
2023/10/14 03:07:33;;;;;;;1.05;0.05;;;9.90;99.90;;;;;;5017026;28;20690;-67
2023/10/14 03:12:48;;;;;;;5.65;0.40;;;9.90;99.90;;;;;;5015106;28;20057;-67
2023/10/14 03:15:22;;;;;;;5.30;0.40;;;9.80;99.90;;;;;;5016803;28;20487;-67
2023/10/14 03:17:58;;;;;;;8.23;0.35;;;9.70;99.90;;;;;;5020460;28;20034;-67
2023/10/14 03:23:18;;;;;;;0.50;0.20;;;9.60;99.90;;;;;;5003592;28;20101;-67
2023/10/14 03:25:51;;;;;;;2.85;0.17;;;9.60;99.90;;;;;;5016928;28;20448;-67
2023/10/14 03:28:21;;;;;;;0.90;0.15;;;9.60;99.90;;;;;;4994719;28;20098;-65
2023/10/14 03:30:55;;;;;;;0.28;0.10;;;9.60;99.90;;;;;;5011474;28;20068;-66
2023/10/14 03:33:21;;;;;;;0.30;0.10;;;9.60;99.90;;;;;;4999038;28;20077;-65
2023/10/14 03:35:57;;;;;;;5.07;0.13;;;9.60;99.90;;;;;;5001983;28;20038;-66
2023/10/14 03:38:38;;;;;;;6.25;0.50;;;9.70;99.90;;;;;;5014735;28;20038;-65
2023/10/14 03:41:10;;;;;;;1.77;0.32;;;9.60;99.90;;;;;;5016731;28;20053;-65
2023/10/14 03:46:47;;;;;;;10.70;0.47;;;9.60;99.90;;;;;;5009345;28;20076;-66
2023/10/14 03:49:25;;;;;;;9.65;0.43;;;9.60;99.90;;;;;;5015175;28;20383;-66
2023/10/14 03:51:56;;;;;;;0.88;0.32;;;9.60;99.90;;;;;;5014142;28;20058;-65
2023/10/14 03:54:41;;;;;;;3.05;0.40;;;9.50;99.90;;;;;;5019195;28;20060;-65
2023/10/14 03:57:07;;;;;;;0.63;0.30;;;9.50;99.90;;;;;;5018926;28;20640;-65
2023/10/14 03:59:33;;;;;;;0.05;0.00;;;9.40;99.90;;;;;;5011581;28;20045;-65
2023/10/14 04:02:05;;;;;;;2.83;0.50;;;9.40;99.90;;;;;;5019746;28;20037;-65
2023/10/14 04:04:31;;;;;;;0.80;0.05;;;9.40;99.90;;;;;;4992591;28;20050;-65
2023/10/14 04:09:37;;;;;;;0.15;0.15;;;9.40;99.90;;;;;;5013922;28;20123;-64
2023/10/14 04:12:30;;;;;;;3.20;0.10;;;9.40;99.90;;;;;;5020616;28;20482;-64
2023/10/14 04:14:54;;;;;;;0.30;0.20;;;9.50;99.90;;;;;;5018958;28;20278;-65
2023/10/14 04:17:30;;;;;;;0.82;0.15;;;9.50;99.90;;;;;;5010474;28;20034;-64
2023/10/14 04:22:44;;;;;;;0.80;0.10;;;9.60;99.90;;;;;;5021838;28;20540;-64
2023/10/14 04:25:22;;;;;;;5.18;0.80;;;9.60;99.90;;;;;;5017575;28;20033;-64
2023/10/14 04:35:25;;;;;;;0.00;0.00;;;9.70;99.90;;;;;;5015445;28;20120;-63
2023/10/14 04:37:52;;;;;;;0.00;0.00;;;9.70;99.90;;;;;;5013958;28;20367;-63
2023/10/14 04:48:35;;;;;;;0.70;0.20;;;9.50;99.90;;;;;;5019195;28;20044;-64
2023/10/14 04:51:15;;;;;;;0.30;0.00;;;9.40;99.90;;;;;;5017418;28;20073;-65
2023/10/14 04:53:45;;;;;;;1.55;0.20;;;9.40;99.90;;;;;;5016849;28;20057;-65
2023/10/14 04:56:12;;;;;;;0.95;0.10;;;9.30;99.90;;;;;;5012267;28;20037;-65
2023/10/14 04:58:40;;;;;;;4.35;0.80;;;9.20;99.90;;;;;;4999024;28;20041;-65
2023/10/14 05:01:09;;;;;;;4.15;0.40;;;9.20;99.90;;;;;;5019166;28;20041;-65
2023/10/14 05:03:36;;;;;;;0.50;0.08;;;9.20;99.90;;;;;;5022345;28;20056;-64
2023/10/14 05:08:47;;;;;;;2.05;0.00;;;9.10;99.90;;;;;;5003306;28;20037;-65
2023/10/14 05:11:14;;;;;;;2.03;0.10;;;9.10;99.90;;;;;;5017474;28;20131;-66
2023/10/14 05:13:44;;;;;;;5.68;0.47;;;9.20;99.90;;;;;;5021405;28;20048;-65
2023/10/14 05:16:20;;;;;;;0.00;0.00;;;9.20;99.90;;;;;;5012811;28;20516;-65
2023/10/14 05:19:00;;;;;;;0.80;0.28;;;9.30;99.90;;;;;;5016537;28;20034;-64
2023/10/14 05:21:36;;;;;;;2.63;0.30;;;9.30;99.90;;;;;;5017775;28;20037;-64
2023/10/14 05:24:08;;;;;;;0.75;0.10;;;9.30;99.90;;;;;;5023778;28;20100;-65
2023/10/14 05:26:45;;;;;;;1.17;0.17;;;9.40;99.90;;;;;;5000577;28;20060;-64
2023/10/14 05:29:19;;;;;;;3.70;0.30;;;9.30;99.90;;;;;;5014300;28;20045;-65
2023/10/14 05:31:46;;;;;;;4.00;0.23;;;9.30;99.90;;;;;;5015975;28;20069;-64
2023/10/14 05:34:13;;;;;;;1.83;0.30;;;9.20;99.90;;;;;;5014390;28;20034;-64
2023/10/14 05:36:39;;;;;;;3.75;0.22;;;9.20;99.90;;;;;;5015884;28;20054;-65
2023/10/14 05:39:06;;;;;;;0.28;0.00;;;9.20;99.90;;;;;;5004160;28;20462;-65
2023/10/14 05:41:33;;;;;;;0.28;0.03;;;9.10;99.90;;;;;;5013484;28;20116;-64
2023/10/14 05:43:59;;;;;;;2.53;0.13;;;9.10;99.90;;;;;;5007971;28;20030;-64
2023/10/14 05:46:25;;;;;;;0.25;0.03;;;9.00;99.90;;;;;;5015188;28;20038;-65
2023/10/14 05:48:53;;;;;;;0.28;0.10;;;8.90;99.90;;;;;;5020612;28;20128;-65
2023/10/14 05:51:20;;;;;;;0.63;0.35;;;9.00;99.90;;;;;;5015387;28;20050;-65
2023/10/14 05:53:49;;;;;;;0.80;0.17;;;8.90;99.90;;;;;;5016724;28;20052;-64
2023/10/14 05:56:15;;;;;;;0.93;0.30;;;8.90;99.90;;;;;;5014444;28;20045;-65
2023/10/14 05:58:41;;;;;;;1.13;0.30;;;8.80;99.90;;;;;;5018201;28;20045;-65
2023/10/14 06:01:13;;;;;;;0.70;0.20;;;8.80;99.90;;;;;;5020815;28;20048;-65
2023/10/14 06:03:43;;;;;;;0.50;0.20;;;8.80;99.90;;;;;;5021461;28;20057;-65
2023/10/14 06:06:10;;;;;;;0.52;0.05;;;8.70;99.90;;;;;;5013801;28;20052;-65
2023/10/14 06:08:37;;;;;;;0.40;0.20;;;8.70;99.90;;;;;;5017929;28;20051;-65
2023/10/14 06:11:05;;;;;;;0.40;0.08;;;8.70;99.90;;;;;;5009742;28;20482;-65
2023/10/14 06:13:31;;;;;;;5.82;0.20;;;8.70;99.90;;;;;;5014199;28;20038;-65
2023/10/14 06:16:00;;;;;;;3.50;0.50;;;8.70;99.90;;;;;;5020394;28;20037;-65
2023/10/14 06:18:29;;;;;;;0.10;0.10;;;8.70;99.90;;;;;;5012199;28;20095;-65
2023/10/14 06:20:55;;;;;;;1.55;0.10;;;8.70;99.90;;;;;;5016054;28;20054;-64
2023/10/14 06:23:23;;;;;;;0.22;0.00;;;8.70;99.90;;;;;;5018489;28;20049;-65
2023/10/14 06:25:48;;;;;;;3.30;0.35;;;8.70;99.90;;;;;;5016045;28;20068;-65
2023/10/14 06:28:14;;;;;;;3.22;0.10;;;8.70;99.90;;;;;;5010752;28;20466;-64
2023/10/14 06:30:40;;;;;;;0.98;0.28;;;8.70;99.90;;;;;;5027373;28;20056;-64
2023/10/14 06:33:06;;;;;;;0.35;0.00;;;8.70;99.90;;;;;;4990869;28;20030;-64
2023/10/14 06:35:42;;;;;;;1.50;0.40;;;8.70;99.90;;;;;;5019147;28;20113;-64
2023/10/14 06:38:11;;;;;;;3.35;0.35;;;8.70;99.90;;;;;;5011010;28;20038;-65
2023/10/14 06:40:42;;;;;;;4.15;0.60;;;8.80;99.90;;;;;;5016591;28;20037;-65
2023/10/14 06:43:09;;;;;;;3.30;0.30;;;8.80;99.90;;;;;;5010321;28;20401;-65
2023/10/14 06:45:36;;;;;;;0.13;0.00;;;8.80;99.90;;;;;;5020906;28;20563;-65
2023/10/14 06:48:04;;;;;;;0.30;0.10;;;8.90;99.90;;;;;;5013248;28;20390;-64
2023/10/14 06:50:31;;;;;;;0.63;0.15;;;8.90;99.90;;;;;;5012446;28;20045;-65
2023/10/14 06:53:01;;;;;;;7.38;0.50;;;9.00;99.90;;;;;;5010179;28;20094;-64
2023/10/14 06:55:51;;;;;;;2.22;0.20;;;9.00;99.90;;;;;;5021574;28;20389;-65
2023/10/14 06:58:27;;;;;;;0.30;0.25;;;9.20;99.90;;;;;;4993560;28;20107;-64
2023/10/14 07:00:53;;;;;;;1.88;0.22;;;9.30;99.90;;;;;;4999311;28;20195;-64
2023/10/14 07:03:19;;;;;;;1.98;0.28;;;9.40;99.90;;;;;;5014494;28;20431;-65
2023/10/14 07:06:09;;;;;;;2.30;0.40;;;9.50;99.90;;;;;;5016404;28;20037;-65
2023/10/14 07:08:36;;;;;;;2.42;0.50;;;9.60;99.90;;;;;;5006506;28;20053;-64
2023/10/14 07:11:02;;;;;;;2.10;0.13;;;9.70;99.90;;;;;;5017511;28;20046;-65
2023/10/14 07:13:27;;;;;;;0.43;0.10;;;9.80;99.90;;;;;;5016447;28;20457;-65
2023/10/14 07:15:53;;;;;;;0.73;0.45;;;9.80;99.90;;;;;;5013860;28;20085;-64
2023/10/14 07:18:23;;;;;;;0.25;0.10;;;9.90;99.90;;;;;;5011089;28;20034;-65
2023/10/14 07:21:00;;;;;;;2.92;0.10;;;10.10;99.90;;;;;;5007706;28;20099;-65
2023/10/14 07:23:34;;;;;;;0.65;0.32;;;10.20;99.90;;;;;;5014600;28;20044;-64
2023/10/14 07:26:09;;;;;;;3.65;1.05;;;10.40;99.90;;;;;;5008980;28;20104;-63
2023/10/14 07:28:36;;;;;;;4.30;0.57;;;10.50;99.90;;;;;;5010694;28;20033;-64
2023/10/14 07:31:02;;;;;;;5.57;0.30;;;10.70;99.90;;;;;;5013800;28;20029;-64
2023/10/14 07:33:29;;;;;;;3.05;0.28;;;11.10;99.90;;;;;;5016035;28;20033;-64
2023/10/14 07:35:59;;;;;;;1.55;0.32;;;11.90;99.90;;;;;;5012224;28;20042;-64
2023/10/14 07:38:24;;;;;;;2.03;0.20;;;12.70;99.90;;;;;;5013560;28;20041;-64
2023/10/14 07:40:52;;;;;;;1.80;0.35;;;13.50;99.90;;;;;;5013468;28;20361;-64
2023/10/14 07:43:19;;;;;;;1.77;0.25;;;14.10;99.90;;;;;;5020467;28;20453;-63
2023/10/14 07:45:48;;;;;;;0.63;0.30;;;14.70;99.90;;;;;;5012661;28;20052;-64
2023/10/14 07:48:17;;;;;;;2.22;0.30;;;15.30;99.90;;;;;;5015702;28;20069;-64
2023/10/14 07:50:47;;;;;;;1.63;0.22;;;15.80;99.90;;;;;;5011405;28;20409;-64
2023/10/14 07:53:19;;;;;;;1.50;0.40;;;16.30;99.90;;;;;;5016362;28;20073;-64
2023/10/14 07:55:50;;;;;;;5.45;0.85;;;16.80;99.90;;;;;;5012173;28;21287;-64
2023/10/14 07:58:18;;;;;;;1.35;0.38;;;17.30;99.90;;;;;;5013435;28;20501;-65
2023/10/14 08:00:49;;;;;;;3.22;0.28;;;17.70;99.90;;;;;;5011113;28;20537;-66
2023/10/14 08:03:16;;;;;;;8.68;0.35;;;18.10;99.90;;;;;;5015811;28;20077;-64
2023/10/14 08:05:48;;;;;;;1.23;0.17;;;18.40;99.90;;;;;;5013791;28;20166;-64
2023/10/14 08:08:14;;;;;;;3.10;0.28;;;18.70;99.90;;;;;;5011103;28;20053;-64
2023/10/14 08:10:42;;;;;;;0.93;0.10;;;18.90;99.90;;;;;;5018137;28;20042;-65
2023/10/14 08:13:09;;;;;;;2.47;0.28;;;19.10;99.90;;;;;;5011695;28;20040;-65
2023/10/14 08:15:36;;;;;;;2.60;0.30;;;19.20;99.90;;;;;;5011625;28;20045;-65
2023/10/14 08:18:06;;;;;;;2.35;0.60;;;19.30;99.90;;;;;;5006917;28;20038;-64
2023/10/14 08:20:36;;;;;;;2.20;0.35;;;19.60;99.90;;;;;;5020357;28;20038;-65
2023/10/14 08:23:09;;;;;;;1.85;0.17;;;20.00;99.90;;;;;;5007954;28;20037;-64
2023/10/14 08:25:39;;;;;;;3.55;0.43;;;20.20;99.90;;;;;;4990018;28;20053;-65
2023/10/14 08:28:07;;;;;;;6.43;0.30;;;20.20;99.90;;;;;;5011684;28;20514;-65
2023/10/14 08:30:45;;;;;;;1.83;0.32;;;20.20;99.90;;;;;;5014823;28;20038;-65
2023/10/14 08:33:11;;;;;;;1.15;0.20;;;20.20;99.90;;;;;;5007533;28;20069;-65
2023/10/14 08:35:41;;;;;;;0.98;0.20;;;20.40;99.90;;;;;;5010179;28;20044;-64
2023/10/14 08:38:12;;;;;;;2.63;0.30;;;20.60;99.90;;;;;;5012452;28;20044;-64
2023/10/14 08:40:43;;;;;;;3.58;0.35;;;20.50;99.90;;;;;;5013319;28;20049;-65
2023/10/14 08:43:18;;;;;;;0.55;0.30;;;20.70;99.90;;;;;;5004775;28;20038;-65
2023/10/14 08:45:48;;;;;;;3.53;0.28;;;20.70;99.90;;;;;;5009414;28;20046;-64
2023/10/14 08:48:16;;;;;;;2.95;0.28;;;20.60;99.90;;;;;;4997372;28;20506;-64
2023/10/14 08:50:42;;;;;;;3.35;0.30;;;19.90;99.90;;;;;;5001488;28;20564;-65
2023/10/14 08:53:10;;;;;;;1.15;0.43;;;19.30;99.90;;;;;;5011325;28;20150;-64
2023/10/14 08:55:39;;;;;;;3.08;0.20;;;18.70;99.90;;;;;;5012183;28;20038;-65
2023/10/14 08:58:07;;;;;;;2.88;0.45;;;17.80;99.90;;;;;;5021776;28;20413;-64
2023/10/14 09:00:36;;;;;;;2.28;0.20;;;17.10;99.90;;;;;;5021911;28;20087;-64
2023/10/14 09:03:06;;;;;;;1.52;0.15;;;16.50;99.90;;;;;;5017702;28;20036;-65
2023/10/14 09:05:34;;;;;;;1.10;0.10;;;16.20;99.90;;;;;;5016045;28;20072;-65
2023/10/14 09:08:00;;;;;;;1.45;0.20;;;15.70;99.90;;;;;;5019845;28;20114;-64
2023/10/14 09:10:26;;;;;;;1.73;0.10;;;16.40;99.90;;;;;;5016501;28;20429;-64
2023/10/14 09:12:59;;;;;;;2.72;0.10;;;17.60;99.90;;;;;;5013767;28;20449;-65
2023/10/14 09:15:31;;;;;;;0.65;0.10;;;18.80;99.90;;;;;;4997592;28;20112;-65
2023/10/14 09:17:57;;;;;;;0.68;0.30;;;19.60;99.90;;;;;;5021030;28;20044;-65
2023/10/14 09:20:31;;;;;;;4.32;0.52;;;20.10;99.90;;;;;;4999007;28;20041;-65
2023/10/14 09:23:44;;;;;;;0.80;0.10;;;20.60;99.90;;;;;;5013645;28;20030;-65
2023/10/14 09:26:08;;;;;;;1.20;0.20;;;21.20;99.90;;;;;;4997006;28;20046;-65
2023/10/14 09:28:41;;;;;;;0.50;0.13;;;21.50;99.90;;;;;;5001911;28;20386;-65
2023/10/14 09:31:08;;;;;;;2.65;0.15;;;21.70;99.90;;;;;;5020850;28;20044;-65
2023/10/14 09:33:45;;;;;;;1.15;0.10;;;22.00;99.90;;;;;;5013942;28;20047;-65
2023/10/14 09:36:14;;;;;;;2.78;0.28;;;22.30;99.90;;;;;;5017648;28;20504;-65
2023/10/14 09:38:41;;;;;;;0.30;0.10;;;22.50;99.10;;;;;;5019442;28;20053;-66
2023/10/14 09:41:10;;;;;;;1.40;0.20;;;22.30;99.90;;;;;;5009699;28;20056;-66
2023/10/14 09:43:42;;;;;;;2.60;0.30;;;21.90;99.90;;;;;;5008044;28;20500;-66
2023/10/14 09:46:11;;;;;;;0.20;0.00;;;21.90;99.90;;;;;;5002678;28;20033;-66
2023/10/14 09:48:38;;;;;;;1.15;0.20;;;22.00;99.90;;;;;;4985619;28;20044;-65
2023/10/14 09:51:06;;;;;;;2.60;0.30;;;21.10;99.90;;;;;;5003416;28;20482;-66
2023/10/14 09:53:36;;;;;;;0.82;0.10;;;20.00;99.90;;;;;;5020391;28;20392;-66
2023/10/14 09:56:08;;;;;;;1.13;0.10;;;18.40;99.90;;;;;;5011906;28;20118;-65
2023/10/14 09:58:36;;;;;;;1.30;0.10;;;17.00;99.90;;;;;;5002970;28;20090;-67
2023/10/14 10:01:04;;;;;;;1.25;0.38;;;17.20;99.90;;;;;;4999714;28;20045;-66
2023/10/14 10:03:38;;;;;;;3.88;0.38;;;17.20;99.90;;;;;;4992978;28;20450;-67
2023/10/14 10:06:22;;;;;;;1.95;0.38;;;16.90;99.90;;;;;;5016383;28;20371;-67
2023/10/14 10:09:17;;;;;;;1.27;0.13;;;16.50;99.90;;;;;;4992561;28;20073;-66
2023/10/14 10:11:46;;;;;;;2.75;0.30;;;16.10;99.90;;;;;;5002875;28;20417;-66
2023/10/14 10:14:16;;;;;;;4.28;0.52;;;15.60;99.90;;;;;;5019715;28;20041;-67
2023/10/14 10:16:42;;;;;;;2.20;0.30;;;15.40;99.90;;;;;;5012983;28;20042;-68
2023/10/14 10:19:10;;;;;;;0.75;0.22;;;16.10;99.90;;;;;;4996661;28;20445;-69
2023/10/14 10:21:43;;;;;;;2.75;0.38;;;17.30;99.90;;;;;;4991789;28;20080;-69
2023/10/14 10:24:34;;;;;;;4.22;0.20;;;18.70;99.90;;;;;;4996766;28;20096;-69
2023/10/14 10:27:03;;;;;;;0.77;0.13;;;19.60;99.90;;;;;;4990126;28;20034;-69
2023/10/14 10:29:33;;;;;;;0.20;0.10;;;20.40;99.90;;;;;;4992340;28;20522;-71
2023/10/14 10:32:11;;;;;;;1.30;0.20;;;20.90;99.90;;;;;;4994986;28;20099;-70
2023/10/14 10:35:13;;;;;;;0.85;0.10;;;21.50;99.90;;;;;;5011974;28;20040;-70
2023/10/14 10:37:57;;;;;;;0.15;0.00;;;21.90;99.90;;;;;;5002797;28;20085;-68
2023/10/14 10:40:25;;;;;;;2.90;0.55;;;22.10;96.00;;;;;;4999777;28;20133;-66
2023/10/14 10:43:05;;;;;;;4.68;0.65;;;22.10;99.90;;;;;;5001184;28;20316;-67
2023/10/14 10:45:35;;;;;;;1.73;0.00;;;21.70;88.60;;;;;;4975155;28;20045;-67
2023/10/14 10:48:15;;;;;;;1.20;0.20;;;21.40;83.70;;;;;;5006151;28;20525;-67
2023/10/14 10:50:49;;;;;;;0.75;0.10;;;20.70;94.70;;;;;;4995354;28;20049;-70
2023/10/14 10:53:17;;;;;;;0.38;0.10;;;19.40;86.90;;;;;;4998356;28;20106;-70
2023/10/14 10:55:48;;;;;;;0.28;0.10;;;18.20;88.30;;;;;;4995984;28;20128;-71
2023/10/14 10:58:15;;;;;;;0.45;0.00;;;16.70;98.10;;;;;;4997248;28;20108;-71
2023/10/14 11:00:45;;;;;;;4.28;0.20;;;15.30;99.90;;;;;;4998683;28;20037;-68
2023/10/14 11:03:14;;;;;;;0.40;0.00;;;15.10;99.90;;;;;;5001677;28;20071;-69
2023/10/14 11:05:45;;;;;;;1.13;0.03;;;15.40;99.90;;;;;;5007185;28;20100;-69
2023/10/14 11:08:11;;;;;;;0.10;0.00;;;14.80;99.90;;;;;;4992277;28;20042;-69
2023/10/14 11:10:40;;;;;;;1.08;0.15;;;14.60;99.90;;;;;;4994062;28;20541;-69
2023/10/14 11:13:13;;;;;;;2.33;0.22;;;15.10;99.90;;;;;;5009092;28;20052;-68
2023/10/14 11:15:40;;;;;;;0.90;0.38;;;16.10;99.90;;;;;;5011860;28;20045;-69
2023/10/14 11:18:10;;;;;;;1.98;0.20;;;16.90;99.90;;;;;;5008279;28;20044;-69
2023/10/14 11:20:43;;;;;;;1.15;0.10;;;17.60;99.90;;;;;;4998877;28;20048;-69
2023/10/14 11:23:10;;;;;;;0.32;0.25;;;18.40;99.90;;;;;;4995566;28;20121;-69
2023/10/14 11:25:46;;;;;;;1.52;0.10;;;18.80;99.90;;;;;;5013545;28;20029;-69
2023/10/14 11:28:14;;;;;;;0.70;0.00;;;18.90;99.90;;;;;;4994552;28;20030;-69
2023/10/14 11:30:47;;;;;;;2.83;0.13;;;19.30;99.90;;;;;;5013265;28;20046;-70
2023/10/14 11:33:16;;;;;;;0.10;0.00;;;19.40;99.90;;;;;;5011272;28;20045;-70
2023/10/14 11:35:42;;;;;;;0.70;0.10;;;19.70;99.90;;;;;;4979446;28;20127;-70
2023/10/14 11:38:13;;;;;;;0.30;0.10;;;19.70;99.90;;;;;;4996583;28;20127;-70
2023/10/14 11:40:40;;;;;;;0.55;0.10;;;19.80;97.50;;;;;;5000306;28;20401;-70
2023/10/14 11:43:11;;;;;;;0.40;0.00;;;19.60;79.30;;;;;;4998722;28;20062;-70
2023/10/14 11:45:43;;;;;;;0.90;0.20;;;18.80;91.90;;;;;;4997614;28;20261;-71
2023/10/14 11:48:25;;;;;;;1.55;0.03;;;17.80;84.80;;;;;;5000009;28;20069;-71
2023/10/14 11:51:02;;;;;;;3.45;0.13;;;17.50;87.60;;;;;;4998812;28;20053;-70
2023/10/14 11:53:32;;;;;;;0.73;0.20;;;17.70;89.10;;;;;;5001738;28;20411;-71
2023/10/14 11:56:03;;;;;;;1.23;0.15;;;18.00;97.90;;;;;;4997428;28;20033;-71
2023/10/14 11:58:35;;;;;;;3.63;0.20;;;18.60;99.70;;;;;;5001509;28;20396;-70
2023/10/14 12:01:01;;;;;;;1.25;0.00;;;18.60;98.70;;;;;;4997113;28;20490;-70
2023/10/14 12:03:27;;;;;;;1.42;0.65;;;17.90;80.80;;;;;;4993514;28;20046;-70
2023/10/14 12:05:59;;;;;;;3.38;0.50;;;17.00;89.90;;;;;;5001921;28;20113;-71
2023/10/14 12:08:30;;;;;;;0.98;0.70;;;16.10;97.00;;;;;;5001471;28;20033;-67
2023/10/14 12:10:57;;;;;;;3.55;0.32;;;15.40;99.60;;;;;;5012989;28;20045;-71
2023/10/14 12:13:26;;;;;;;0.35;0.10;;;15.80;99.90;;;;;;4992387;28;20458;-70
2023/10/14 12:15:52;;;;;;;0.55;0.30;;;15.50;99.90;;;;;;5014419;28;20100;-71
2023/10/14 12:18:20;;;;;;;2.17;0.30;;;15.00;99.90;;;;;;4998460;28;20026;-70
2023/10/14 12:20:48;;;;;;;2.90;0.45;;;14.40;99.90;;;;;;4969592;28;20050;-71
2023/10/14 12:23:18;;;;;;;0.65;0.20;;;14.00;99.90;;;;;;4995883;28;20057;-70
2023/10/14 12:25:50;;;;;;;0.40;0.30;;;13.60;99.90;;;;;;4996533;28;20116;-71
2023/10/14 12:28:26;;;;;;;0.43;0.15;;;13.30;99.90;;;;;;4995726;28;20150;-71
2023/10/14 12:30:59;;;;;;;1.13;0.57;;;13.00;99.90;;;;;;5003990;28;20042;-71
2023/10/14 12:33:31;;;;;;;1.23;0.20;;;12.90;99.90;;;;;;4993857;28;20510;-70
2023/10/14 12:36:06;;;;;;;2.38;0.30;;;12.80;99.90;;;;;;4984544;28;20120;-70
2023/10/14 12:38:32;;;;;;;6.85;3.03;;;12.70;99.90;;;;;;5002053;28;20041;-70
2023/10/14 12:41:01;;;;;;;6.03;1.63;;;12.60;99.90;;;;;;4999349;28;20061;-70
2023/10/14 12:43:28;;;;;;;1.95;0.43;;;12.50;99.90;;;;;;5003473;28;20038;-70
2023/10/14 12:46:09;;;;;;;5.20;0.57;;;12.40;99.90;;;;;;5003278;28;20786;-71
2023/10/14 12:48:39;;;;;;;5.53;0.45;;;12.30;99.90;;;;;;5002506;28;20053;-70
2023/10/14 12:51:10;;;;;;;0.20;0.00;;;12.20;99.90;;;;;;4999564;28;20049;-70
2023/10/14 12:53:36;;;;;;;1.45;0.15;;;12.30;99.90;;;;;;4991926;28;20080;-70
2023/10/14 12:56:03;;;;;;;1.42;0.22;;;12.50;99.90;;;;;;5000495;28;20597;-70
2023/10/14 12:58:29;;;;;;;0.47;0.17;;;12.60;99.90;;;;;;4991905;28;20038;-71
2023/10/14 13:00:56;;;;;;;2.55;0.08;;;12.70;99.90;;;;;;4997580;28;22185;-70
2023/10/14 13:03:23;;;;;;;1.52;0.30;;;12.70;99.90;;;;;;4981504;28;20038;-71
2023/10/14 13:05:52;;;;;;;0.63;0.10;;;12.70;99.90;;;;;;5007061;28;20061;-70
2023/10/14 13:08:21;;;;;;;1.02;0.30;;;12.80;99.90;;;;;;5001795;28;20176;-70
2023/10/14 13:10:47;;;;;;;1.42;0.15;;;12.80;99.90;;;;;;4998884;28;20042;-71
2023/10/14 13:13:13;;;;;;;0.90;0.20;;;12.80;99.90;;;;;;5004818;28;20049;-70
2023/10/14 13:15:39;;;;;;;14.43;7.20;;;12.80;99.90;;;;;;5016069;28;20077;-71
2023/10/14 13:18:05;;;;;;;2.67;0.35;;;12.80;99.90;;;;;;4986812;28;20126;-71
2023/10/14 13:20:35;;;;;;;5.30;0.68;;;12.80;99.90;;;;;;4989576;28;20124;-70
2023/10/14 13:23:07;;;;;;;0.95;0.22;;;12.90;99.90;;;;;;4988741;28;20052;-70
2023/10/14 13:25:37;;;;;;;1.45;0.17;;;13.10;99.90;;;;;;5002525;28;20183;-70
2023/10/14 13:28:08;;;;;;;3.90;0.45;;;13.30;99.90;;;;;;5020347;28;20379;-70
2023/10/14 13:30:39;;;;;;;1.38;0.20;;;13.40;99.90;;;;;;4998956;28;20045;-70
2023/10/14 13:33:08;;;;;;;3.03;0.20;;;13.40;99.90;;;;;;5002838;28;20417;-70
2023/10/14 13:35:33;;;;;;;0.00;0.00;;;13.40;99.90;;;;;;5004113;28;20041;-71
2023/10/14 13:38:03;;;;;;;0.98;0.30;;;13.40;99.90;;;;;;5000969;28;20500;-70
2023/10/14 13:40:30;;;;;;;2.22;0.63;;;13.40;99.90;;;;;;5006676;28;20363;-71
2023/10/14 13:42:56;;;;;;;2.03;0.30;;;13.30;99.90;;;;;;5016741;28;20525;-70
2023/10/14 13:45:22;;;;;;;1.23;0.25;;;13.10;99.90;;;;;;5002944;28;20029;-71
2023/10/14 13:47:48;;;;;;;3.47;0.70;;;13.00;99.90;;;;;;4993334;28;20030;-70
2023/10/14 13:50:21;;;;;;;3.30;1.08;;;12.90;99.90;;;;;;4996851;28;20178;-71
2023/10/14 13:53:19;;;;;;;1.70;0.35;;;12.80;99.90;;;;;;5003057;28;20545;-70
2023/10/14 13:55:45;;;;;;;2.90;1.05;;;12.70;99.90;;;;;;5006423;28;20527;-70
2023/10/14 13:58:12;;;;;;;1.20;0.20;;;12.70;99.90;;;;;;4978796;28;20109;-70
2023/10/14 14:00:40;;;;;;;2.40;0.17;;;12.80;99.90;;;;;;4983479;28;20096;-69
2023/10/14 14:03:09;;;;;;;1.80;0.57;;;12.90;99.90;;;;;;4996167;28;20573;-70
2023/10/14 14:05:36;;;;;;;1.77;0.35;;;13.00;99.90;;;;;;4989306;28;20115;-70
2023/10/14 14:08:02;;;;;;;4.03;0.45;;;13.00;99.90;;;;;;4983157;28;20046;-69